Observation data for Sundown on 12/13/2019      Previous  Date       Current Mesonet Observations  Soil Data  Daily Summary Page  Observations in Plain Language
KSDS 130600Z 28009KT 06/M01 A2999 RMK A01 T00611010  RH  061%=      5-min Rain = 0
KSDS 130605Z 28009KT 07/M01 A2999 RMK A01 T00651011  RH  059%=      5-min Rain = 0
KSDS 130610Z 28009KT 06/M01 A2999 RMK A01 T00631012  RH  059%=      5-min Rain = 0
KSDS 130615Z 28009KT 06/M01 A2999 RMK A01 T00601013  RH  060%=      5-min Rain = 0
KSDS 130620Z 28008KT 06/M01 A2999 RMK A01 T00591014  RH  060%=      5-min Rain = 0
KSDS 130625Z 28008KT 06/M02 A2998 RMK A01 T00561015  RH  061%=      5-min Rain = 0
KSDS 130630Z 28008KT 05/M02 A2998 RMK A01 T00521016  RH  062%=      5-min Rain = 0
KSDS 130635Z 29008KT 05/M02 A2998 RMK A01 T00481017  RH  064%=      5-min Rain = 0
KSDS 130640Z 29008KT 05/M02 A2998 RMK A01 T00451017  RH  065%=      5-min Rain = 0
KSDS 130645Z 30007KT 04/M02 A2998 RMK A01 T00421018  RH  065%=      5-min Rain = 0
KSDS 130650Z 30007KT 04/M02 A2998 RMK A01 T00391019  RH  067%=      5-min Rain = 0
KSDS 130655Z 29007KT 03/M02 A2998 RMK A01 T00341021  RH  068%=      5-min Rain = 0
KSDS 130700Z 28008KT 03/M02 A2998 RMK A01 T00311022  RH  069%=      5-min Rain = 0
KSDS 130705Z 28008KT 03/M02 A2998 RMK A01 T00291022  RH  070%=      5-min Rain = 0
KSDS 130710Z 28009KT 03/M02 A2997 RMK A01 T00301021  RH  070%=      5-min Rain = 0
KSDS 130715Z 28009KT 03/M02 A2997 RMK A01 T00291022  RH  070%=      5-min Rain = 0
KSDS 130720Z 28009KT 03/M02 A2997 RMK A01 T00291022  RH  070%=      5-min Rain = 0
KSDS 130725Z 29009KT 03/M02 A2998 RMK A01 T00291022  RH  070%=      5-min Rain = 0
KSDS 130730Z 30009KT 03/M02 A2998 RMK A01 T00321021  RH  069%=      5-min Rain = 0
KSDS 130735Z 30009KT 03/M02 A2998 RMK A01 T00331022  RH  068%=      5-min Rain = 0
KSDS 130740Z 29009KT 03/M02 A2998 RMK A01 T00291024  RH  069%=      5-min Rain = 0
KSDS 130745Z 29009KT 03/M02 A2998 RMK A01 T00271024  RH  070%=      5-min Rain = 0
KSDS 130750Z 29009KT 03/M02 A2998 RMK A01 T00271024  RH  070%=      5-min Rain = 0
KSDS 130755Z 28010KT 03/M02 A2997 RMK A01 T00281024  RH  069%=      5-min Rain = 0
KSDS 130800Z 28010KT 04/M02 A2996 RMK A01 T00361023  RH  066%=      5-min Rain = 0
KSDS 130805Z 28010KT 04/M02 A2996 RMK A01 T00431024  RH  062%=      5-min Rain = 0
KSDS 130810Z 28010KT 05/M03 A2996 RMK A01 T00481025  RH  060%=      5-min Rain = 0
KSDS 130815Z 29010KT 05/M03 A2997 RMK A01 T00491025  RH  059%=      5-min Rain = 0
KSDS 130820Z 30010KT 06/M03 A2998 RMK A01 T00551025  RH  057%=      5-min Rain = 0
KSDS 130825Z 31010KT 06/M03 A2998 RMK A01 T00611026  RH  054%=      5-min Rain = 0
KSDS 130830Z 31009KT 06/M03 A2998 RMK A01 T00621028  RH  053%=      5-min Rain = 0
KSDS 130835Z 31010KT 06/M03 A2998 RMK A01 T00621029  RH  052%=      5-min Rain = 0
KSDS 130840Z 31010KT 06/M03 A2998 RMK A01 T00601030  RH  053%=      5-min Rain = 0
KSDS 130845Z 31009KT 06/M03 A2998 RMK A01 T00581032  RH  053%=      5-min Rain = 0
KSDS 130850Z 30008KT 05/M03 A2998 RMK A01 T00531033  RH  054%=      5-min Rain = 0
KSDS 130855Z 31008KT 05/M03 A2998 RMK A01 T00491033  RH  056%=      5-min Rain = 0
KSDS 130900Z 32008KT 04/M04 A2997 RMK A01 T00441035  RH  057%=      5-min Rain = 0
KSDS 130905Z 31008KT 04/M04 A2997 RMK A01 T00411035  RH  058%=      5-min Rain = 0
KSDS 130910Z 31008KT 04/M04 A2997 RMK A01 T00401035  RH  058%=      5-min Rain = 0
KSDS 130915Z 31009KT 04/M03 A2997 RMK A01 T00401034  RH  059%=      5-min Rain = 0
KSDS 130920Z 30008KT 04/M03 A2996 RMK A01 T00401034  RH  059%=      5-min Rain = 0
KSDS 130925Z 31007KT 04/M04 A2996 RMK A01 T00371035  RH  060%=      5-min Rain = 0
KSDS 130930Z 31007KT 03/M04 A2996 RMK A01 T00341035  RH  061%=      5-min Rain = 0
KSDS 130935Z 31009KT 04/M03 A2996 RMK A01 T00391033  RH  060%=      5-min Rain = 0
KSDS 130940Z 31010KT 05/M03 A2996 RMK A01 T00451032  RH  058%=      5-min Rain = 0
KSDS 130945Z 30009KT 05/M03 A2996 RMK A01 T00501031  RH  056%=      5-min Rain = 0
KSDS 130950Z 30011KT 06/M03 A2996 RMK A01 T00571029  RH  054%=      5-min Rain = 0
KSDS 130955Z 30013KT 07/M03 A2997 RMK A01 T00721028  RH  049%=      5-min Rain = 0
KSDS 131000Z 30012KT 08/M03 A2997 RMK A01 T00791028  RH  047%=      5-min Rain = 0
KSDS 131005Z 30011KT 08/M03 A2997 RMK A01 T00821028  RH  046%=      5-min Rain = 0
KSDS 131010Z 30012KT 09/M03 A2997 RMK A01 T00851029  RH  045%=      5-min Rain = 0
KSDS 131015Z 30012G19KT 09/M03 A2997 RMK A01 T00881029  RH  044%=      5-min Rain = 0
KSDS 131020Z 30014KT 09/M03 A2996 RMK A01 T00911029  RH  043%=      5-min Rain = 0
KSDS 131025Z 30015KT 09/M03 A2996 RMK A01 T00941029  RH  042%=      5-min Rain = 0
KSDS 131030Z 29015KT 09/M03 A2995 RMK A01 T00941029  RH  042%=      5-min Rain = 0
KSDS 131035Z 29015KT 10/M03 A2996 RMK A01 T00961029  RH  042%=      5-min Rain = 0
KSDS 131040Z 29014KT 09/M03 A2996 RMK A01 T00931029  RH  043%=      5-min Rain = 0
KSDS 131045Z 29012KT 09/M03 A2996 RMK A01 T00911029  RH  043%=      5-min Rain = 0
KSDS 131050Z 29012KT 09/M03 A2996 RMK A01 T00881029  RH  044%=      5-min Rain = 0
KSDS 131055Z 29013G18KT 09/M03 A2996 RMK A01 T00871029  RH  044%=      5-min Rain = 0
KSDS 131100Z 29012KT 09/M03 A2996 RMK A01 T00851029  RH  045%=      5-min Rain = 0
KSDS 131105Z 29012KT 08/M03 A2996 RMK A01 T00811029  RH  046%=      5-min Rain = 0
KSDS 131110Z 29013KT 08/M03 A2997 RMK A01 T00821029  RH  046%=      5-min Rain = 0
KSDS 131115Z 29013KT 08/M03 A2997 RMK A01 T00821030  RH  046%=      5-min Rain = 0
KSDS 131120Z 29014KT 08/M03 A2997 RMK A01 T00821030  RH  046%=      5-min Rain = 0
KSDS 131125Z 29013KT 08/M03 A2996 RMK A01 T00821030  RH  045%=      5-min Rain = 0
KSDS 131130Z 29011KT 08/M03 A2995 RMK A01 T00821030  RH  045%=      5-min Rain = 0
KSDS 131135Z 29011KT 08/M03 A2995 RMK A01 T00791031  RH  046%=      5-min Rain = 0
KSDS 131140Z 29012KT 07/M03 A2996 RMK A01 T00741030  RH  048%=      5-min Rain = 0
KSDS 131145Z 28012KT 08/M03 A2996 RMK A01 T00761029  RH  047%=      5-min Rain = 0
KSDS 131150Z 28013KT 08/M03 A2996 RMK A01 T00771029  RH  047%=      5-min Rain = 0
KSDS 131155Z 28012KT 08/M03 A2995 RMK A01 T00781029  RH  047%=      5-min Rain = 0
KSDS 131200Z 28013KT 08/M03 A2995 RMK A01 T00821028  RH  046%=      5-min Rain = 0
KSDS 131205Z 29014KT 08/M03 A2994 RMK A01 T00841028  RH  045%=      5-min Rain = 0
KSDS 131210Z 28014KT 09/M03 A2995 RMK A01 T00851028  RH  045%=      5-min Rain = 0
KSDS 131215Z 28013KT 09/M03 A2995 RMK A01 T00851028  RH  045%=      5-min Rain = 0
KSDS 131220Z 28013KT 09/M03 A2995 RMK A01 T00871027  RH  045%=      5-min Rain = 0
KSDS 131225Z 28013KT 09/M03 A2996 RMK A01 T00861027  RH  045%=      5-min Rain = 0
KSDS 131230Z 28012KT 09/M03 A2996 RMK A01 T00851027  RH  045%=      5-min Rain = 0
KSDS 131235Z 28012KT 08/M03 A2996 RMK A01 T00841027  RH  046%=      5-min Rain = 0
KSDS 131240Z 29012KT 08/M03 A2997 RMK A01 T00841026  RH  046%=      5-min Rain = 0
KSDS 131245Z 29013KT 08/M03 A2996 RMK A01 T00831026  RH  046%=      5-min Rain = 0
KSDS 131250Z 28013KT 09/M03 A2996 RMK A01 T00851026  RH  046%=      5-min Rain = 0
KSDS 131255Z 28013KT 08/M03 A2996 RMK A01 T00841026  RH  046%=      5-min Rain = 0
KSDS 131300Z 28014KT 08/M03 A2996 RMK A01 T00841025  RH  046%=      5-min Rain = 0
KSDS 131305Z 28015KT 08/M03 A2996 RMK A01 T00841025  RH  046%=      5-min Rain = 0
KSDS 131310Z 28014G19KT 08/M03 A2996 RMK A01 T00841026  RH  046%=      5-min Rain = 0
KSDS 131315Z 28013KT 08/M03 A2996 RMK A01 T00811026  RH  047%=      5-min Rain = 0
KSDS 131320Z 28013KT 08/M03 A2996 RMK A01 T00801025  RH  048%=      5-min Rain = 0
KSDS 131325Z 28013KT 08/M03 A2996 RMK A01 T00791025  RH  048%=      5-min Rain = 0
KSDS 131330Z 28013G18KT 08/M03 A2997 RMK A01 T00781025  RH  049%=      5-min Rain = 0
KSDS 131335Z 28013G18KT 08/M02 A2997 RMK A01 T00791024  RH  048%=      5-min Rain = 0
KSDS 131340Z 29014KT 08/M02 A2997 RMK A01 T00811024  RH  048%=      5-min Rain = 0
KSDS 131345Z 29015KT 08/M02 A2997 RMK A01 T00841023  RH  047%=      5-min Rain = 0
KSDS 131350Z 29015KT 09/M02 A2997 RMK A01 T00861023  RH  047%=      5-min Rain = 0
KSDS 131355Z 29014KT 09/M02 A2997 RMK A01 T00861022  RH  047%=      5-min Rain = 0
KSDS 131400Z 29014KT 09/M02 A2997 RMK A01 T00861022  RH  047%=      5-min Rain = 0
KSDS 131405Z 29014KT 09/M02 A2998 RMK A01 T00881022  RH  046%=      5-min Rain = 0
KSDS 131410Z 29013KT 09/M02 A2998 RMK A01 T00911021  RH  046%=      5-min Rain = 0
KSDS 131415Z 29013KT 09/M02 A2998 RMK A01 T00931021  RH  045%=      5-min Rain = 0
KSDS 131420Z 29016G23KT 10/M02 A2998 RMK A01 T00971020  RH  044%=      5-min Rain = 0
KSDS 131425Z 29014G19KT 10/M02 A2998 RMK A01 T01001020  RH  044%=      5-min Rain = 0
KSDS 131430Z 29016G22KT 10/M02 A2998 RMK A01 T00991020  RH  043%=      5-min Rain = 0
KSDS 131435Z 29015G20KT 10/M02 A2998 RMK A01 T01011020  RH  043%=      5-min Rain = 0
KSDS 131440Z 29015KT 10/M02 A2998 RMK A01 T01021020  RH  043%=      5-min Rain = 0
KSDS 131445Z 29014KT 10/M02 A2999 RMK A01 T01041019  RH  042%=      5-min Rain = 0
KSDS 131450Z 29016G21KT 11/M02 A2999 RMK A01 T01091018  RH  041%=      5-min Rain = 0
KSDS 131455Z 29016KT 11/M02 A2999 RMK A01 T01141018  RH  040%=      5-min Rain = 0
KSDS 131500Z 29017KT 12/M02 A2999 RMK A01 T01201017  RH  039%=      5-min Rain = 0
KSDS 131505Z 29017G26KT 13/M02 A2998 RMK A01 T01261016  RH  038%=      5-min Rain = 0
KSDS 131510Z 29020G26KT 13/M02 A2997 RMK A01 T01331016  RH  036%=      5-min Rain = 0
KSDS 131515Z 29019G25KT 14/M02 A2997 RMK A01 T01381016  RH  035%=      5-min Rain = 0
KSDS 131520Z 29019G27KT 14/M02 A2998 RMK A01 T01421016  RH  034%=      5-min Rain = 0
KSDS 131525Z 29022G27KT 15/M02 A2998 RMK A01 T01451016  RH  033%=      5-min Rain = 0
KSDS 131530Z 29024G30KT 15/M02 A2998 RMK A01 T01471016  RH  033%=      5-min Rain = 0
KSDS 131535Z 29022G30KT 15/M02 A2997 RMK A01 T01501016  RH  032%=      5-min Rain = 0
KSDS 131540Z 29023G30KT 15/M02 A2997 RMK A01 T01531016  RH  032%=      5-min Rain = 0
KSDS 131545Z 29023G28KT 16/M02 A2997 RMK A01 T01551015  RH  031%=      5-min Rain = 0
KSDS 131550Z 29021G27KT 16/M02 A2997 RMK A01 T01561015  RH  031%=      5-min Rain = 0
KSDS 131555Z 29022G28KT 16/M02 A2997 RMK A01 T01551016  RH  031%=      5-min Rain = 0
KSDS 131600Z 29022G28KT 16/M02 A2998 RMK A01 T01551016  RH  031%=      5-min Rain = 0
KSDS 131605Z 29022G27KT 16/M02 A2998 RMK A01 T01551016  RH  031%=      5-min Rain = 0
KSDS 131610Z 29020G25KT 16/M02 A2998 RMK A01 T01581015  RH  031%=      5-min Rain = 0
KSDS 131615Z 29022G28KT 16/M02 A2998 RMK A01 T01611016  RH  030%=      5-min Rain = 0
KSDS 131620Z 29020G26KT 16/M02 A2998 RMK A01 T01631016  RH  030%=      5-min Rain = 0
KSDS 131625Z 29020G27KT 17/M02 A2998 RMK A01 T01671015  RH  029%=      5-min Rain = 0
KSDS 131630Z 29021G26KT 17/M02 A2998 RMK A01 T01661016  RH  029%=      5-min Rain = 0
KSDS 131635Z 29022G29KT 17/M02 A2998 RMK A01 T01671016  RH  029%=      5-min Rain = 0
KSDS 131640Z 29023G28KT 17/M02 A2999 RMK A01 T01671016  RH  029%=      5-min Rain = 0
KSDS 131645Z 30024G30KT 17/M02 A2999 RMK A01 T01701017  RH  028%=      5-min Rain = 0
KSDS 131650Z 30023G29KT 17/M02 A2998 RMK A01 T01721017  RH  028%=      5-min Rain = 0
KSDS 131655Z 30021G28KT 18/M02 A2999 RMK A01 T01751016  RH  027%=      5-min Rain = 0
KSDS 131700Z 29022G27KT 18/M02 A2998 RMK A01 T01751017  RH  027%=      5-min Rain = 0
KSDS 131705Z 29024G31KT 18/M02 A2998 RMK A01 T01761017  RH  027%=      5-min Rain = 0
KSDS 131710Z 30023G30KT 18/M02 A2998 RMK A01 T01781017  RH  027%=      5-min Rain = 0
KSDS 131715Z 30020G27KT 18/M02 A2999 RMK A01 T01831016  RH  026%=      5-min Rain = 0
KSDS 131720Z 30023G32KT 18/M02 A2998 RMK A01 T01841017  RH  026%=      5-min Rain = 0
KSDS 131725Z 30023G31KT 19/M02 A2999 RMK A01 T01851017  RH  026%=      5-min Rain = 0
KSDS 131730Z 31023G29KT 19/M02 A2998 RMK A01 T01851018  RH  025%=      5-min Rain = 0
KSDS 131735Z 31024G31KT 18/M02 A2998 RMK A01 T01841019  RH  025%=      5-min Rain = 0
KSDS 131740Z 31023G30KT 18/M02 A2998 RMK A01 T01821019  RH  026%=      5-min Rain = 0
KSDS 131745Z 30023G30KT 18/M02 A2997 RMK A01 T01831019  RH  026%=      5-min Rain = 0
KSDS 131750Z 30024G31KT 19/M02 A2997 RMK A01 T01881019  RH  025%=      5-min Rain = 0
KSDS 131755Z 30024G31KT 19/M02 A2997 RMK A01 T01891019  RH  024%=      5-min Rain = 0
KSDS 131800Z 30022G29KT 20/M02 A2996 RMK A01 T01951019  RH  024%=      5-min Rain = 0
KSDS 131805Z 30024G31KT 19/M02 A2996 RMK A01 T01941020  RH  024%=      5-min Rain = 0
KSDS 131810Z 30021G28KT 19/M02 A2996 RMK A01 T01941020  RH  024%=      5-min Rain = 0
KSDS 131815Z 30024G33KT 19/M02 A2996 RMK A01 T01941021  RH  023%=      5-min Rain = 0
KSDS 131820Z 30022G30KT 20/M02 A2995 RMK A01 T01981020  RH  023%=      5-min Rain = 0
KSDS 131825Z 30024G33KT 20/M02 A2995 RMK A01 T01981022  RH  023%=      5-min Rain = 0
KSDS 131830Z 30022G28KT 20/M02 A2994 RMK A01 T02001023  RH  022%=      5-min Rain = 0
KSDS 131835Z 32025G34KT 20/M02 A2994 RMK A01 T02031024  RH  022%=      5-min Rain = 0
KSDS 131840Z 31028G39KT 19/M03 A2993 RMK A01 T01941027  RH  022%=      5-min Rain = 0
KSDS 131845Z 31030G38KT 20/M03 A2993 RMK A01 T01951026  RH  022%=      5-min Rain = 0
KSDS 131850Z 32025G32KT 20/M03 A2993 RMK A01 T01961025  RH  022%=      5-min Rain = 0
KSDS 131855Z 32026G33KT 20/M03 A2992 RMK A01 T02001026  RH  022%=      5-min Rain = 0
KSDS 131900Z 32025G33KT 20/M03 A2992 RMK A01 T01991028  RH  022%=      5-min Rain = 0
KSDS 131905Z 31025G33KT 20/M03 A2992 RMK A01 T02021028  RH  021%=      5-min Rain = 0
KSDS 131910Z 32029G37KT 20/M03 A2992 RMK A01 T01961032  RH  021%=      5-min Rain = 0
KSDS 131915Z 32028G36KT 19/M03 A2991 RMK A01 T01931032  RH  022%=      5-min Rain = 0
KSDS 131920Z 31028G37KT 19/M03 A2992 RMK A01 T01911030  RH  022%=      5-min Rain = 0
KSDS 131925Z 32028G35KT 19/M03 A2992 RMK A01 T01921029  RH  022%=      5-min Rain = 0
KSDS 131930Z 31025G33KT 19/M03 A2992 RMK A01 T01931029  RH  022%=      5-min Rain = 0
KSDS 131935Z 32024G30KT 19/M03 A2992 RMK A01 T01931028  RH  022%=      5-min Rain = 0
KSDS 131940Z 32021G27KT 19/M03 A2992 RMK A01 T01911027  RH  023%=      5-min Rain = 0
KSDS 131945Z 31024G30KT 19/M03 A2992 RMK A01 T01911028  RH  023%=      5-min Rain = 0
KSDS 131950Z 31021G27KT 19/M03 A2992 RMK A01 T01911027  RH  023%=      5-min Rain = 0
KSDS 131955Z 32020KT 19/M03 A2991 RMK A01 T01921026  RH  023%=      5-min Rain = 0
KSDS 132000Z 32018G23KT 20/M03 A2991 RMK A01 T01951026  RH  022%=      5-min Rain = 0
KSDS 132005Z 31017G22KT 20/M03 A299 RMK A01 T01961026  RH  022%=      5-min Rain = 0
KSDS 132010Z 31017G27KT 20/M03 A299 RMK A01 T02001030  RH  021%=      5-min Rain = 0
KSDS 132015Z 31020G27KT 20/M04 A299 RMK A01 T02031042  RH  019%=      5-min Rain = 0
KSDS 132020Z 32026G35KT 20/M05 A299 RMK A01 T02031047  RH  018%=      5-min Rain = 0
KSDS 132025Z 32025G33KT 20/M05 A299 RMK A01 T02011047  RH  019%=      5-min Rain = 0
KSDS 132030Z 31024G33KT 20/M05 A299 RMK A01 T01991045  RH  019%=      5-min Rain = 0
KSDS 132035Z 31023G31KT 20/M04 A2989 RMK A01 T01991044  RH  019%=      5-min Rain = 0
KSDS 132040Z 31023G32KT 21/M05 A2989 RMK A01 T02051046  RH  018%=      5-min Rain = 0
KSDS 132045Z 30028G33KT 21/M05 A2989 RMK A01 T02091052  RH  017%=      5-min Rain = 0
KSDS 132050Z 31028G35KT 21/M05 A2989 RMK A01 T02101053  RH  017%=      5-min Rain = 0
KSDS 132055Z 31028G36KT 21/M06 A2989 RMK A01 T02101056  RH  016%=      5-min Rain = 0
KSDS 132100Z 30024G32KT 21/M05 A2989 RMK A01 T02131053  RH  016%=      5-min Rain = 0
KSDS 132105Z 31027G37KT 21/M06 A2988 RMK A01 T02131058  RH  016%=      5-min Rain = 0
KSDS 132110Z 31028G36KT 21/M06 A2989 RMK A01 T02121057  RH  016%=      5-min Rain = 0
KSDS 132115Z 31025G34KT 21/M06 A2989 RMK A01 T02131057  RH  016%=      5-min Rain = 0
KSDS 132120Z 31027G35KT 21/M06 A2989 RMK A01 T02101062  RH  016%=      5-min Rain = 0
KSDS 132125Z 31026G33KT 21/M06 A2989 RMK A01 T02081060  RH  016%=      5-min Rain = 0
KSDS 132130Z 31026G34KT 20/M06 A2989 RMK A01 T02021059  RH  017%=      5-min Rain = 0
KSDS 132135Z 31021G29KT 20/M06 A2989 RMK A01 T02001060  RH  017%=      5-min Rain = 0
KSDS 132140Z 31024G32KT 20/M06 A2989 RMK A01 T02001059  RH  017%=      5-min Rain = 0
KSDS 132145Z 31019G24KT 20/M06 A2989 RMK A01 T02021058  RH  017%=      5-min Rain = 0
KSDS 132150Z 30022G32KT 20/M06 A2989 RMK A01 T02021057  RH  017%=      5-min Rain = 0
KSDS 132155Z 30024G29KT 20/M06 A2989 RMK A01 T02041057  RH  017%=      5-min Rain = 0
KSDS 132200Z 30023G30KT 21/M06 A299 RMK A01 T02051056  RH  017%=      5-min Rain = 0
KSDS 132205Z 30026G34KT 20/M06 A2989 RMK A01 T02041058  RH  017%=      5-min Rain = 0
KSDS 132210Z 30026G33KT 20/M06 A299 RMK A01 T02031059  RH  017%=      5-min Rain = 0
KSDS 132215Z 31023G32KT 20/M06 A299 RMK A01 T02021057  RH  017%=      5-min Rain = 0
KSDS 132220Z 31020G29KT 20/M05 A299 RMK A01 T02031054  RH  017%=      5-min Rain = 0
KSDS 132225Z 30021G28KT 20/M05 A299 RMK A01 T02011054  RH  017%=      5-min Rain = 0
KSDS 132230Z 30021G29KT 20/M05 A299 RMK A01 T02011053  RH  018%=      5-min Rain = 0
KSDS 132235Z 31020G27KT 20/M05 A299 RMK A01 T02001052  RH  018%=      5-min Rain = 0
KSDS 132240Z 31022G29KT 20/M06 A299 RMK A01 T02001055  RH  017%=      5-min Rain = 0
KSDS 132245Z 30021G29KT 20/M06 A299 RMK A01 T01991058  RH  017%=      5-min Rain = 0
KSDS 132250Z 31022KT 20/M06 A299 RMK A01 T01981062  RH  017%=      5-min Rain = 0
KSDS 132255Z 31019G24KT 20/M06 A299 RMK A01 T01961060  RH  017%=      5-min Rain = 0
KSDS 132300Z 31016KT 19/M06 A299 RMK A01 T01941058  RH  018%=      5-min Rain = 0
KSDS 132305Z 31015KT 19/M06 A299 RMK A01 T01921057  RH  018%=      5-min Rain = 0
KSDS 132310Z 30015G22KT 19/M06 A299 RMK A01 T01901056  RH  018%=      5-min Rain = 0
KSDS 132315Z 30018G23KT 19/M06 A299 RMK A01 T01891057  RH  018%=      5-min Rain = 0
KSDS 132320Z 30015G21KT 19/M06 A299 RMK A01 T01861055  RH  019%=      5-min Rain = 0
KSDS 132325Z 30017KT 18/M06 A299 RMK A01 T01841056  RH  019%=      5-min Rain = 0
KSDS 132330Z 30014KT 18/M06 A2991 RMK A01 T01791056  RH  020%=      5-min Rain = 0
KSDS 132335Z 30013KT 18/M06 A2991 RMK A01 T01751057  RH  020%=      5-min Rain = 0
KSDS 132340Z 31012KT 17/M06 A2991 RMK A01 T01691057  RH  021%=      5-min Rain = 0
KSDS 132345Z 31011KT 16/M06 A2991 RMK A01 T01631056  RH  022%=      5-min Rain = 0
KSDS 132350Z 31011KT 16/M06 A2991 RMK A01 T01581055  RH  023%=      5-min Rain = 0
KSDS 132355Z 31011KT 15/M05 A2992 RMK A01 T01531054  RH  023%=      5-min Rain = 0
KSDS 140000Z 30010KT 15/M05 A2991 RMK A01 T01491054  RH  024%=      5-min Rain = 0
KSDS 140005Z 30010KT 14/M05 A2991 RMK A01 T01421053  RH  026%=      5-min Rain = 0
KSDS 140010Z 30011KT 14/M05 A2991 RMK A01 T01381052  RH  027%=      5-min Rain = 0
KSDS 140015Z 29011KT 13/M05 A2991 RMK A01 T01341051  RH  027%=      5-min Rain = 0
KSDS 140020Z 28010KT 13/M05 A2991 RMK A01 T01281051  RH  028%=      5-min Rain = 0
KSDS 140025Z 28010KT 12/M05 A2991 RMK A01 T01201051  RH  030%=      5-min Rain = 0
KSDS 140030Z 27011KT 12/M05 A2992 RMK A01 T01201051  RH  030%=      5-min Rain = 0
KSDS 140035Z 28012KT 12/M05 A2992 RMK A01 T01221050  RH  030%=      5-min Rain = 0
KSDS 140040Z 28012KT 12/M05 A2992 RMK A01 T01221049  RH  030%=      5-min Rain = 0
KSDS 140045Z 29011KT 12/M05 A2992 RMK A01 T01231047  RH  030%=      5-min Rain = 0
KSDS 140050Z 29011KT 13/M05 A2992 RMK A01 T01251047  RH  030%=      5-min Rain = 0
KSDS 140055Z 29011KT 13/M05 A2992 RMK A01 T01281046  RH  029%=      5-min Rain = 0
KSDS 140100Z 30010KT 13/M05 A2993 RMK A01 T01311046  RH  029%=      5-min Rain = 0
KSDS 140105Z 30010KT 13/M05 A2993 RMK A01 T01321046  RH  029%=      5-min Rain = 0
KSDS 140110Z 30010KT 13/M05 A2993 RMK A01 T01301047  RH  029%=      5-min Rain = 0
KSDS 140115Z 30010KT 13/M05 A2993 RMK A01 T01251046  RH  030%=      5-min Rain = 0
KSDS 140120Z 31010KT 12/M05 A2993 RMK A01 T01221047  RH  031%=      5-min Rain = 0
KSDS 140125Z 31010KT 12/M05 A2994 RMK A01 T01151047  RH  032%=      5-min Rain = 0
KSDS 140130Z 30011KT 11/M05 A2993 RMK A01 T01101046  RH  033%=      5-min Rain = 0
KSDS 140135Z 30012KT 11/M05 A2994 RMK A01 T01101046  RH  033%=      5-min Rain = 0
KSDS 140140Z 29013KT 11/M05 A2994 RMK A01 T01121046  RH  033%=      5-min Rain = 0
KSDS 140145Z 30014KT 12/M05 A2995 RMK A01 T01191046  RH  031%=      5-min Rain = 0
KSDS 140150Z 30013KT 12/M05 A2995 RMK A01 T01231047  RH  030%=      5-min Rain = 0
KSDS 140155Z 30012G17KT 12/M05 A2995 RMK A01 T01181047  RH  031%=      5-min Rain = 0
KSDS 140200Z 30014KT 13/M05 A2995 RMK A01 T01261047  RH  030%=      5-min Rain = 0
KSDS 140205Z 30014KT 13/M05 A2995 RMK A01 T01271048  RH  029%=      5-min Rain = 0
KSDS 140210Z 30013KT 13/M05 A2995 RMK A01 T01251047  RH  030%=      5-min Rain = 0
KSDS 140215Z 30013KT 12/M05 A2995 RMK A01 T01241047  RH  030%=      5-min Rain = 0
KSDS 140220Z 30013KT 12/M05 A2995 RMK A01 T01231046  RH  030%=      5-min Rain = 0
KSDS 140225Z 30012KT 12/M05 A2995 RMK A01 T01231046  RH  030%=      5-min Rain = 0
KSDS 140230Z 30012KT 12/M05 A2995 RMK A01 T01231046  RH  031%=      5-min Rain = 0
KSDS 140235Z 30011KT 12/M05 A2995 RMK A01 T01221045  RH  031%=      5-min Rain = 0
KSDS 140240Z 30011KT 12/M05 A2995 RMK A01 T01221045  RH  031%=      5-min Rain = 0
KSDS 140245Z 30010KT 12/M04 A2995 RMK A01 T01211044  RH  031%=      5-min Rain = 0
KSDS 140250Z 30011KT 12/M04 A2995 RMK A01 T01181044  RH  032%=      5-min Rain = 0
KSDS 140255Z 29011KT 12/M04 A2995 RMK A01 T01161044  RH  033%=      5-min Rain = 0
KSDS 140300Z 30010KT 11/M04 A2995 RMK A01 T01131044  RH  033%=      5-min Rain = 0
KSDS 140305Z 30010KT 11/M04 A2995 RMK A01 T01101044  RH  034%=      5-min Rain = 0
KSDS 140310Z 31009KT 11/M04 A2995 RMK A01 T01081044  RH  034%=      5-min Rain = 0
KSDS 140315Z 31009KT 10/M04 A2995 RMK A01 T01031044  RH  035%=      5-min Rain = 0
KSDS 140320Z 30010KT 10/M04 A2995 RMK A01 T01011044  RH  036%=      5-min Rain = 0
KSDS 140325Z 30010KT 10/M04 A2995 RMK A01 T00971044  RH  037%=      5-min Rain = 0
KSDS 140330Z 30011KT 09/M04 A2994 RMK A01 T00911044  RH  038%=      5-min Rain = 0
KSDS 140335Z 30011KT 09/M04 A2994 RMK A01 T00871044  RH  039%=      5-min Rain = 0
KSDS 140340Z 30012KT 09/M04 A2994 RMK A01 T00881044  RH  039%=      5-min Rain = 0
KSDS 140345Z 30012KT 10/M04 A2994 RMK A01 T00951043  RH  038%=      5-min Rain = 0
KSDS 140350Z 31012KT 10/M04 A2993 RMK A01 T00961044  RH  037%=      5-min Rain = 0
KSDS 140355Z 30011KT 09/M04 A2993 RMK A01 T00931044  RH  038%=      5-min Rain = 0
KSDS 140400Z 30011KT 10/M04 A2993 RMK A01 T00951044  RH  038%=      5-min Rain = 0
KSDS 140405Z 31010KT 10/M04 A2993 RMK A01 T00951043  RH  038%=      5-min Rain = 0
KSDS 140410Z 31010KT 10/M04 A2993 RMK A01 T00951043  RH  038%=      5-min Rain = 0
KSDS 140415Z 30009KT 09/M04 A2993 RMK A01 T00921043  RH  038%=      5-min Rain = 0
KSDS 140420Z 30009KT 09/M04 A2994 RMK A01 T00881043  RH  039%=      5-min Rain = 0
KSDS 140425Z 30009KT 08/M04 A2994 RMK A01 T00811043  RH  041%=      5-min Rain = 0
KSDS 140430Z 30009KT 08/M04 A2994 RMK A01 T00771043  RH  042%=      5-min Rain = 0
KSDS 140435Z 31008KT 08/M04 A2994 RMK A01 T00761043  RH  043%=      5-min Rain = 0
KSDS 140440Z 31008KT 07/M04 A2994 RMK A01 T00711044  RH  044%=      5-min Rain = 0
KSDS 140445Z 32007KT 07/M05 A2994 RMK A01 T00671045  RH  045%=      5-min Rain = 0
KSDS 140450Z 31008KT 06/M05 A2994 RMK A01 T00631045  RH  046%=      5-min Rain = 0
KSDS 140455Z 31009KT 06/M05 A2994 RMK A01 T00631045  RH  046%=      5-min Rain = 0
KSDS 140500Z 31009KT 06/M05 A2994 RMK A01 T00621045  RH  047%=      5-min Rain = 0
KSDS 140505Z 30010KT 06/M04 A2994 RMK A01 T00611044  RH  047%=      5-min Rain = 0
KSDS 140510Z 31010KT 06/M04 A2994 RMK A01 T00631043  RH  047%=      5-min Rain = 0
KSDS 140515Z 30010KT 06/M04 A2994 RMK A01 T00591044  RH  048%=      5-min Rain = 0
KSDS 140520Z 31010KT 06/M04 A2994 RMK A01 T00581044  RH  048%=      5-min Rain = 0
KSDS 140525Z 32010KT 06/M04 A2994 RMK A01 T00601044  RH  047%=      5-min Rain = 0
KSDS 140530Z 29008KT 06/M04 A2994 RMK A01 T00561044  RH  049%=      5-min Rain = 0
KSDS 140535Z 31009KT 05/M04 A2994 RMK A01 T00531044  RH  050%=      5-min Rain = 0
KSDS 140540Z 31009KT 05/M04 A2993 RMK A01 T00521044  RH  050%=      5-min Rain = 0
KSDS 140545Z 29008KT 05/M05 A2994 RMK A01 T00481045  RH  051%=      5-min Rain = 0
KSDS 140550Z 31008KT 05/M05 A2993 RMK A01 T00481045  RH  051%=      5-min Rain = 0
KSDS 140555Z 28008KT 04/M05 A2994 RMK A01 T00441046  RH  052%=      5-min Rain = 0

Page generated in 0.0087 seconds.